sensor_id;sensor_type;location;lat;lon;timestamp;pressure;altitude;pressure_sealevel;temperature;humidity
6208;BME280;3137;51.550;7.060;2023-03-26T00:01:14;100311.88;;;7.79;87.33
6208;BME280;3137;51.550;7.060;2023-03-26T00:03:42;100309.22;;;7.79;87.37
6208;BME280;3137;51.550;7.060;2023-03-26T00:06:13;100314.53;;;7.79;87.69
6208;BME280;3137;51.550;7.060;2023-03-26T00:08:41;100314.34;;;7.82;87.86
6208;BME280;3137;51.550;7.060;2023-03-26T00:11:09;100319.88;;;7.79;87.93
6208;BME280;3137;51.550;7.060;2023-03-26T00:13:36;100316.06;;;7.83;87.98
6208;BME280;3137;51.550;7.060;2023-03-26T00:16:03;100308.78;;;7.85;87.44
6208;BME280;3137;51.550;7.060;2023-03-26T00:18:30;100314.25;;;7.83;87.50
6208;BME280;3137;51.550;7.060;2023-03-26T00:20:57;100308.78;;;7.85;87.34
6208;BME280;3137;51.550;7.060;2023-03-26T00:23:25;100310.19;;;7.91;87.79
6208;BME280;3137;51.550;7.060;2023-03-26T00:25:52;100298.78;;;7.88;87.37
6208;BME280;3137;51.550;7.060;2023-03-26T00:28:19;100296.00;;;7.90;87.71
6208;BME280;3137;51.550;7.060;2023-03-26T00:30:56;100297.81;;;7.89;87.43
6208;BME280;3137;51.550;7.060;2023-03-26T00:33:23;100293.31;;;7.90;87.68
6208;BME280;3137;51.550;7.060;2023-03-26T00:35:55;100298.78;;;7.88;87.75
6208;BME280;3137;51.550;7.060;2023-03-26T00:38:25;100290.16;;;7.98;86.84
6208;BME280;3137;51.550;7.060;2023-03-26T00:40:52;100287.28;;;8.01;87.10
6208;BME280;3137;51.550;7.060;2023-03-26T00:43:20;100291.56;;;8.03;86.50
6208;BME280;3137;51.550;7.060;2023-03-26T00:45:49;100289.63;;;8.05;86.53
6208;BME280;3137;51.550;7.060;2023-03-26T00:48:16;100291.34;;;8.06;86.52
6208;BME280;3137;51.550;7.060;2023-03-26T00:50:45;100292.63;;;8.01;85.87
6208;BME280;3137;51.550;7.060;2023-03-26T00:53:12;100296.25;;;8.00;86.40
6208;BME280;3137;51.550;7.060;2023-03-26T00:55:44;100290.03;;;7.99;86.43
6208;BME280;3137;51.550;7.060;2023-03-26T00:58:11;100278.53;;;7.99;86.09
6208;BME280;3137;51.550;7.060;2023-03-26T01:00:50;100290.38;;;8.07;86.08
6208;BME280;3137;51.550;7.060;2023-03-26T01:03:18;100283.47;;;8.05;86.02
6208;BME280;3137;51.550;7.060;2023-03-26T01:06:04;100280.88;;;8.03;85.33
6208;BME280;3137;51.550;7.060;2023-03-26T01:08:47;100277.47;;;8.01;85.75
6208;BME280;3137;51.550;7.060;2023-03-26T01:11:19;100282.69;;;8.03;85.64
6208;BME280;3137;51.550;7.060;2023-03-26T01:13:49;100272.13;;;8.01;85.54
6208;BME280;3137;51.550;7.060;2023-03-26T01:16:25;100269.16;;;8.06;85.71
6208;BME280;3137;51.550;7.060;2023-03-26T01:18:53;100264.56;;;8.08;85.32
6208;BME280;3137;51.550;7.060;2023-03-26T01:21:22;100260.09;;;8.08;85.28
6208;BME280;3137;51.550;7.060;2023-03-26T01:28:59;100247.81;;;8.06;84.40
6208;BME280;3137;51.550;7.060;2023-03-26T01:31:32;100253.91;;;8.08;84.60
6208;BME280;3137;51.550;7.060;2023-03-26T01:34:11;100248.47;;;8.09;84.68
6208;BME280;3137;51.550;7.060;2023-03-26T01:37:07;100251.53;;;8.03;85.27
6208;BME280;3137;51.550;7.060;2023-03-26T01:42:42;100247.19;;;8.15;84.38
6208;BME280;3137;51.550;7.060;2023-03-26T01:45:12;100228.72;;;8.12;84.00
6208;BME280;3137;51.550;7.060;2023-03-26T01:47:42;100233.94;;;8.14;83.98
6208;BME280;3137;51.550;7.060;2023-03-26T01:50:09;100230.97;;;8.05;84.47
6208;BME280;3137;51.550;7.060;2023-03-26T01:52:36;100235.13;;;8.09;84.42
6208;BME280;3137;51.550;7.060;2023-03-26T01:55:03;100229.81;;;8.09;84.33
6208;BME280;3137;51.550;7.060;2023-03-26T02:00:31;100217.31;;;8.10;84.54
6208;BME280;3137;51.550;7.060;2023-03-26T02:03:04;100220.81;;;8.10;85.06
6208;BME280;3137;51.550;7.060;2023-03-26T02:08:23;100214.22;;;8.03;84.64
6208;BME280;3137;51.550;7.060;2023-03-26T02:10:58;100198.63;;;7.97;85.09
6208;BME280;3137;51.550;7.060;2023-03-26T02:13:26;100198.44;;;8.00;84.89
6208;BME280;3137;51.550;7.060;2023-03-26T02:15:55;100193.75;;;7.91;85.69
6208;BME280;3137;51.550;7.060;2023-03-26T02:18:23;100191.06;;;7.91;84.94
6208;BME280;3137;51.550;7.060;2023-03-26T02:20:50;100193.00;;;7.89;85.00
6208;BME280;3137;51.550;7.060;2023-03-26T02:23:20;100185.66;;;7.93;85.36
6208;BME280;3137;51.550;7.060;2023-03-26T02:25:47;100172.19;;;7.94;84.94
6208;BME280;3137;51.550;7.060;2023-03-26T02:28:14;100168.56;;;7.95;84.33
6208;BME280;3137;51.550;7.060;2023-03-26T02:30:42;100161.31;;;7.84;84.17
6208;BME280;3137;51.550;7.060;2023-03-26T02:33:10;100176.69;;;7.81;84.22
6208;BME280;3137;51.550;7.060;2023-03-26T02:35:40;100172.28;;;7.80;83.97
6208;BME280;3137;51.550;7.060;2023-03-26T02:38:11;100168.16;;;7.76;84.39
6208;BME280;3137;51.550;7.060;2023-03-26T02:40:40;100174.88;;;7.69;84.24
6208;BME280;3137;51.550;7.060;2023-03-26T02:43:07;100168.66;;;7.68;84.73
6208;BME280;3137;51.550;7.060;2023-03-26T02:45:34;100168.47;;;7.71;85.21
6208;BME280;3137;51.550;7.060;2023-03-26T02:48:20;100166.75;;;7.70;85.15
6208;BME280;3137;51.550;7.060;2023-03-26T02:51:01;100170.06;;;7.74;84.70
6208;BME280;3137;51.550;7.060;2023-03-26T02:53:52;100164.84;;;7.72;85.24
6208;BME280;3137;51.550;7.060;2023-03-26T02:56:44;100168.03;;;7.77;85.24
6208;BME280;3137;51.550;7.060;2023-03-26T02:59:19;100167.09;;;7.78;85.51
6208;BME280;3137;51.550;7.060;2023-03-26T03:01:56;100148.53;;;7.77;85.17
6208;BME280;3137;51.550;7.060;2023-03-26T03:04:22;100153.53;;;7.81;85.01
6208;BME280;3137;51.550;7.060;2023-03-26T03:06:49;100141.81;;;7.84;84.72
6208;BME280;3137;51.550;7.060;2023-03-26T03:09:18;100144.56;;;7.82;84.69
6208;BME280;3137;51.550;7.060;2023-03-26T03:12:17;100135.63;;;7.83;84.49
6208;BME280;3137;51.550;7.060;2023-03-26T03:14:43;100131.38;;;7.81;84.85
6208;BME280;3137;51.550;7.060;2023-03-26T03:17:10;100135.72;;;7.82;84.36
6208;BME280;3137;51.550;7.060;2023-03-26T03:19:36;100127.94;;;7.79;84.16
6208;BME280;3137;51.550;7.060;2023-03-26T03:22:03;100120.06;;;7.77;84.63
6208;BME280;3137;51.550;7.060;2023-03-26T03:24:31;100112.81;;;7.66;84.58
6208;BME280;3137;51.550;7.060;2023-03-26T03:26:59;100104.50;;;7.58;84.92
6208;BME280;3137;51.550;7.060;2023-03-26T03:29:31;100099.47;;;7.54;85.22
6208;BME280;3137;51.550;7.060;2023-03-26T03:32:18;100093.53;;;7.50;85.09
6208;BME280;3137;51.550;7.060;2023-03-26T03:34:47;100090.41;;;7.43;85.14
6208;BME280;3137;51.550;7.060;2023-03-26T03:37:17;100097.88;;;7.38;85.39
6208;BME280;3137;51.550;7.060;2023-03-26T03:39:49;100095.22;;;7.38;85.39
6208;BME280;3137;51.550;7.060;2023-03-26T03:42:18;100094.56;;;7.35;85.02
6208;BME280;3137;51.550;7.060;2023-03-26T03:44:46;100100.94;;;7.32;85.34
6208;BME280;3137;51.550;7.060;2023-03-26T03:47:33;100103.00;;;7.29;84.88
6208;BME280;3137;51.550;7.060;2023-03-26T03:49:59;100097.00;;;7.25;85.05
6208;BME280;3137;51.550;7.060;2023-03-26T03:52:26;100090.22;;;7.21;84.99
6208;BME280;3137;51.550;7.060;2023-03-26T03:54:54;100090.59;;;7.15;85.08
6208;BME280;3137;51.550;7.060;2023-03-26T03:57:35;100094.34;;;7.12;85.28
6208;BME280;3137;51.550;7.060;2023-03-26T04:00:06;100088.47;;;7.07;85.43
6208;BME280;3137;51.550;7.060;2023-03-26T04:02:40;100086.13;;;7.02;85.89
6208;BME280;3137;51.550;7.060;2023-03-26T04:05:08;100088.53;;;6.93;85.86
6208;BME280;3137;51.550;7.060;2023-03-26T04:07:42;100082.56;;;6.89;85.51
6208;BME280;3137;51.550;7.060;2023-03-26T04:10:25;100077.53;;;6.85;85.62
6208;BME280;3137;51.550;7.060;2023-03-26T04:13:11;100077.00;;;6.79;86.43
6208;BME280;3137;51.550;7.060;2023-03-26T04:15:53;100076.69;;;6.84;86.31
6208;BME280;3137;51.550;7.060;2023-03-26T04:18:21;100075.94;;;6.82;86.09
6208;BME280;3137;51.550;7.060;2023-03-26T04:20:48;100064.22;;;6.85;86.44
6208;BME280;3137;51.550;7.060;2023-03-26T04:23:20;100060.72;;;6.84;86.45
6208;BME280;3137;51.550;7.060;2023-03-26T04:25:53;100059.88;;;6.84;86.64
6208;BME280;3137;51.550;7.060;2023-03-26T04:28:41;100055.41;;;6.84;86.49
6208;BME280;3137;51.550;7.060;2023-03-26T04:31:18;100047.88;;;6.91;86.47
6208;BME280;3137;51.550;7.060;2023-03-26T04:33:50;100050.63;;;6.89;86.30
6208;BME280;3137;51.550;7.060;2023-03-26T04:36:25;100046.19;;;6.90;86.66
6208;BME280;3137;51.550;7.060;2023-03-26T04:38:53;100047.78;;;6.92;86.46
6208;BME280;3137;51.550;7.060;2023-03-26T04:41:28;100044.22;;;6.92;86.17
6208;BME280;3137;51.550;7.060;2023-03-26T04:44:00;100037.97;;;6.93;86.21
6208;BME280;3137;51.550;7.060;2023-03-26T04:46:53;100031.59;;;6.95;86.24
6208;BME280;3137;51.550;7.060;2023-03-26T04:49:28;100020.72;;;6.86;85.68
6208;BME280;3137;51.550;7.060;2023-03-26T04:51:54;100025.69;;;6.77;85.70
6208;BME280;3137;51.550;7.060;2023-03-26T04:54:46;100026.88;;;6.73;86.06
6208;BME280;3137;51.550;7.060;2023-03-26T04:57:22;100022.31;;;6.75;86.01
6208;BME280;3137;51.550;7.060;2023-03-26T04:59:57;100019.72;;;6.74;85.96
6208;BME280;3137;51.550;7.060;2023-03-26T05:02:24;100012.59;;;6.74;85.99
6208;BME280;3137;51.550;7.060;2023-03-26T05:04:53;100012.59;;;6.74;85.49
6208;BME280;3137;51.550;7.060;2023-03-26T05:07:21;100010.06;;;6.73;85.81
6208;BME280;3137;51.550;7.060;2023-03-26T05:09:53;100004.53;;;6.76;86.47
6208;BME280;3137;51.550;7.060;2023-03-26T05:12:32;100007.06;;;6.77;86.08
6208;BME280;3137;51.550;7.060;2023-03-26T05:15:03;99999.63;;;6.82;86.07
6208;BME280;3137;51.550;7.060;2023-03-26T05:17:49;99998.75;;;6.82;86.12
6208;BME280;3137;51.550;7.060;2023-03-26T05:20:27;99997.06;;;6.81;86.25
6208;BME280;3137;51.550;7.060;2023-03-26T05:22:55;99985.59;;;6.80;86.15
6208;BME280;3137;51.550;7.060;2023-03-26T05:25:27;99982.16;;;6.78;85.90
6208;BME280;3137;51.550;7.060;2023-03-26T05:27:55;99982.16;;;6.78;86.51
6208;BME280;3137;51.550;7.060;2023-03-26T05:30:26;99973.13;;;6.81;86.33
6208;BME280;3137;51.550;7.060;2023-03-26T05:32:57;99975.56;;;6.84;86.30
6208;BME280;3137;51.550;7.060;2023-03-26T05:35:29;99969.50;;;6.82;86.69
6208;BME280;3137;51.550;7.060;2023-03-26T05:37:56;99968.56;;;6.83;86.95
6208;BME280;3137;51.550;7.060;2023-03-26T05:40:23;99957.69;;;6.86;86.50
6208;BME280;3137;51.550;7.060;2023-03-26T05:42:56;99957.59;;;6.88;86.49
6208;BME280;3137;51.550;7.060;2023-03-26T05:45:25;99954.94;;;6.88;87.10
6208;BME280;3137;51.550;7.060;2023-03-26T05:47:52;99946.19;;;6.86;87.37
6208;BME280;3137;51.550;7.060;2023-03-26T05:50:23;99941.63;;;6.88;87.45
6208;BME280;3137;51.550;7.060;2023-03-26T05:52:53;99945.22;;;6.87;87.87
6208;BME280;3137;51.550;7.060;2023-03-26T05:55:45;99941.09;;;6.82;88.05
6208;BME280;3137;51.550;7.060;2023-03-26T05:58:32;99938.75;;;6.91;87.52
6208;BME280;3137;51.550;7.060;2023-03-26T06:01:22;99926.94;;;6.95;88.12
6208;BME280;3137;51.550;7.060;2023-03-26T06:04:11;99930.88;;;7.02;87.96
6208;BME280;3137;51.550;7.060;2023-03-26T06:06:45;99927.13;;;7.05;87.19
6208;BME280;3137;51.550;7.060;2023-03-26T06:09:12;99917.34;;;6.92;88.19
6208;BME280;3137;51.550;7.060;2023-03-26T06:11:39;99912.22;;;6.89;88.97
6208;BME280;3137;51.550;7.060;2023-03-26T06:14:06;99907.88;;;6.88;88.88
6208;BME280;3137;51.550;7.060;2023-03-26T06:16:35;99906.03;;;6.89;88.98
6208;BME280;3137;51.550;7.060;2023-03-26T06:19:14;99899.56;;;6.93;89.26
6208;BME280;3137;51.550;7.060;2023-03-26T06:22:07;99907.22;;;6.97;89.72
6208;BME280;3137;51.550;7.060;2023-03-26T06:24:51;99893.78;;;6.99;89.54
6208;BME280;3137;51.550;7.060;2023-03-26T06:27:40;99898.59;;;7.07;89.08
6208;BME280;3137;51.550;7.060;2023-03-26T06:30:23;99900.59;;;7.16;88.90
6208;BME280;3137;51.550;7.060;2023-03-26T06:33:01;99901.31;;;7.18;89.04
6208;BME280;3137;51.550;7.060;2023-03-26T06:35:33;99901.97;;;7.21;89.00
6208;BME280;3137;51.550;7.060;2023-03-26T06:38:00;99909.75;;;7.24;89.10
6208;BME280;3137;51.550;7.060;2023-03-26T06:40:28;99906.47;;;7.21;89.13
6208;BME280;3137;51.550;7.060;2023-03-26T06:43:07;99909.75;;;7.24;88.98
6208;BME280;3137;51.550;7.060;2023-03-26T06:46:05;99904.31;;;7.26;88.69
6208;BME280;3137;51.550;7.060;2023-03-26T06:48:50;99909.84;;;7.23;89.58
6208;BME280;3137;51.550;7.060;2023-03-26T06:51:26;99913.66;;;7.32;89.24
6208;BME280;3137;51.550;7.060;2023-03-26T06:54:16;99901.84;;;7.36;88.88
6208;BME280;3137;51.550;7.060;2023-03-26T06:56:55;99905.34;;;7.36;89.35
6208;BME280;3137;51.550;7.060;2023-03-26T06:59:38;99904.69;;;7.45;89.31
6208;BME280;3137;51.550;7.060;2023-03-26T07:02:23;99902.13;;;7.44;88.68
6208;BME280;3137;51.550;7.060;2023-03-26T07:05:08;99897.13;;;7.52;88.73
6208;BME280;3137;51.550;7.060;2023-03-26T07:07:53;99896.25;;;7.52;88.50
6208;BME280;3137;51.550;7.060;2023-03-26T07:10:38;99895.06;;;7.56;88.71
6208;BME280;3137;51.550;7.060;2023-03-26T07:13:15;99888.31;;;7.63;88.91
6208;BME280;3137;51.550;7.060;2023-03-26T07:16:00;99885.41;;;7.66;88.69
6208;BME280;3137;51.550;7.060;2023-03-26T07:18:38;99872.97;;;7.66;88.54
6208;BME280;3137;51.550;7.060;2023-03-26T07:21:08;99875.81;;;7.76;88.58
6208;BME280;3137;51.550;7.060;2023-03-26T07:23:34;99871.22;;;7.78;88.75
6208;BME280;3137;51.550;7.060;2023-03-26T07:27:01;99866.59;;;7.80;89.18
6208;BME280;3137;51.550;7.060;2023-03-26T07:29:51;99866.84;;;7.77;88.95
6208;BME280;3137;51.550;7.060;2023-03-26T07:32:48;99868.66;;;7.77;89.19
6208;BME280;3137;51.550;7.060;2023-03-26T07:35:47;99861.63;;;7.76;89.14
6208;BME280;3137;51.550;7.060;2023-03-26T07:38:43;99855.56;;;7.74;89.07
6208;BME280;3137;51.550;7.060;2023-03-26T07:41:48;99852.56;;;7.78;89.17
6208;BME280;3137;51.550;7.060;2023-03-26T07:47:41;99837.69;;;7.87;89.33
6208;BME280;3137;51.550;7.060;2023-03-26T07:50:23;99837.44;;;7.90;89.46
6208;BME280;3137;51.550;7.060;2023-03-26T07:53:05;99836.25;;;7.94;89.69
6208;BME280;3137;51.550;7.060;2023-03-26T07:55:58;99834.44;;;7.95;89.87
6208;BME280;3137;51.550;7.060;2023-03-26T07:58:51;99830.91;;;7.94;89.65
6208;BME280;3137;51.550;7.060;2023-03-26T08:08:00;99816.00;;;7.92;89.62
6208;BME280;3137;51.550;7.060;2023-03-26T08:10:58;99818.97;;;8.00;89.57
6208;BME280;3137;51.550;7.060;2023-03-26T08:21:44;99812.75;;;7.99;89.25
6208;BME280;3137;51.550;7.060;2023-03-26T08:24:23;99805.72;;;7.98;89.93
6208;BME280;3137;51.550;7.060;2023-03-26T08:27:45;99812.25;;;7.94;89.61
6208;BME280;3137;51.550;7.060;2023-03-26T08:30:16;99810.34;;;7.96;89.59
6208;BME280;3137;51.550;7.060;2023-03-26T08:32:52;99809.34;;;7.86;90.01
6208;BME280;3137;51.550;7.060;2023-03-26T08:35:20;99804.00;;;7.86;89.88
6208;BME280;3137;51.550;7.060;2023-03-26T08:37:46;99802.41;;;7.83;90.47
6208;BME280;3137;51.550;7.060;2023-03-26T08:40:16;99803.84;;;7.76;90.66
6208;BME280;3137;51.550;7.060;2023-03-26T08:45:50;99808.88;;;7.68;91.06
6208;BME280;3137;51.550;7.060;2023-03-26T08:48:59;99806.13;;;7.70;91.87
6208;BME280;3137;51.550;7.060;2023-03-26T09:14:13;99803.09;;;7.74;92.26
6208;BME280;3137;51.550;7.060;2023-03-26T09:25:50;99792.44;;;7.74;92.39
6208;BME280;3137;51.550;7.060;2023-03-26T09:28:35;99791.81;;;7.71;92.73
6208;BME280;3137;51.550;7.060;2023-03-26T09:31:33;99795.22;;;7.73;92.37
6208;BME280;3137;51.550;7.060;2023-03-26T09:34:30;99793.28;;;7.75;93.11
6208;BME280;3137;51.550;7.060;2023-03-26T09:37:06;99785.78;;;7.69;92.97
6208;BME280;3137;51.550;7.060;2023-03-26T09:39:47;99788.94;;;7.74;93.37
6208;BME280;3137;51.550;7.060;2023-03-26T09:42:22;99790.03;;;7.71;93.06
6208;BME280;3137;51.550;7.060;2023-03-26T09:45:00;99791.72;;;7.72;93.07
6208;BME280;3137;51.550;7.060;2023-03-26T09:53:18;99791.38;;;7.77;93.67
6208;BME280;3137;51.550;7.060;2023-03-26T09:56:07;99785.19;;;7.76;94.07
6208;BME280;3137;51.550;7.060;2023-03-26T10:04:32;99788.59;;;7.78;93.87
6208;BME280;3137;51.550;7.060;2023-03-26T10:07:25;99789.44;;;7.79;93.18
6208;BME280;3137;51.550;7.060;2023-03-26T10:10:10;99779.88;;;7.87;93.79
6208;BME280;3137;51.550;7.060;2023-03-26T10:12:49;99774.34;;;7.91;94.29
6208;BME280;3137;51.550;7.060;2023-03-26T10:15:48;99774.44;;;7.89;93.72
6208;BME280;3137;51.550;7.060;2023-03-26T10:18:30;99773.56;;;7.77;93.18
6208;BME280;3137;51.550;7.060;2023-03-26T10:24:06;99777.19;;;7.76;93.51
6208;BME280;3137;51.550;7.060;2023-03-26T10:26:45;99770.19;;;7.86;93.47
6208;BME280;3137;51.550;7.060;2023-03-26T10:30:06;99774.34;;;7.91;92.97
6208;BME280;3137;51.550;7.060;2023-03-26T10:35:49;99765.25;;;7.93;91.09
6208;BME280;3137;51.550;7.060;2023-03-26T10:40:58;99766.63;;;8.10;91.16
6208;BME280;3137;51.550;7.060;2023-03-26T10:43:50;99766.22;;;8.03;90.17
6208;BME280;3137;51.550;7.060;2023-03-26T10:52:33;99762.63;;;8.16;89.33
6208;BME280;3137;51.550;7.060;2023-03-26T10:55:29;99767.22;;;8.14;89.60
6208;BME280;3137;51.550;7.060;2023-03-26T10:58:04;99761.78;;;8.15;90.25
6208;BME280;3137;51.550;7.060;2023-03-26T11:00:41;99754.88;;;8.24;90.04
6208;BME280;3137;51.550;7.060;2023-03-26T11:06:17;99758.03;;;8.29;88.68
6208;BME280;3137;51.550;7.060;2023-03-26T11:08:57;99758.41;;;8.36;88.73
6208;BME280;3137;51.550;7.060;2023-03-26T11:11:31;99762.78;;;8.37;88.57
6208;BME280;3137;51.550;7.060;2023-03-26T11:14:22;99759.66;;;8.43;88.20
6208;BME280;3137;51.550;7.060;2023-03-26T11:17:28;99754.78;;;8.37;88.23
6208;BME280;3137;51.550;7.060;2023-03-26T11:20:19;99760.75;;;8.51;88.59
6208;BME280;3137;51.550;7.060;2023-03-26T11:33:21;99757.84;;;8.43;87.68
6208;BME280;3137;51.550;7.060;2023-03-26T11:35:51;99760.25;;;8.46;88.39
6208;BME280;3137;51.550;7.060;2023-03-26T11:38:33;99760.94;;;8.37;88.32
6208;BME280;3137;51.550;7.060;2023-03-26T11:41:11;99750.94;;;8.41;88.52
6208;BME280;3137;51.550;7.060;2023-03-26T11:43:50;99753.47;;;8.42;87.86
6208;BME280;3137;51.550;7.060;2023-03-26T11:46:21;99756.81;;;8.22;86.77
6208;BME280;3137;51.550;7.060;2023-03-26T11:48:49;99765.03;;;8.19;87.09
6208;BME280;3137;51.550;7.060;2023-03-26T11:53:51;99767.34;;;8.12;86.80
6208;BME280;3137;51.550;7.060;2023-03-26T11:59:05;99759.22;;;8.14;86.56
6208;BME280;3137;51.550;7.060;2023-03-26T12:01:48;99753.66;;;8.17;86.56
6208;BME280;3137;51.550;7.060;2023-03-26T12:04:35;99764.53;;;8.14;86.10
6208;BME280;3137;51.550;7.060;2023-03-26T12:07:28;99760.78;;;8.16;86.63
6208;BME280;3137;51.550;7.060;2023-03-26T12:09:59;99757.41;;;8.25;87.09
6208;BME280;3137;51.550;7.060;2023-03-26T12:12:45;99757.44;;;8.37;86.78
6208;BME280;3137;51.550;7.060;2023-03-26T12:15:14;99754.69;;;8.49;87.42
6208;BME280;3137;51.550;7.060;2023-03-26T12:17:41;99747.03;;;8.45;86.67
6208;BME280;3137;51.550;7.060;2023-03-26T12:22:57;99747.53;;;8.50;86.81
6208;BME280;3137;51.550;7.060;2023-03-26T12:25:36;99751.44;;;8.57;86.39
6208;BME280;3137;51.550;7.060;2023-03-26T12:30:41;99752.38;;;8.67;86.84
6208;BME280;3137;51.550;7.060;2023-03-26T12:33:27;99746.31;;;8.54;86.13
6208;BME280;3137;51.550;7.060;2023-03-26T12:35:55;99752.38;;;8.45;85.97
6208;BME280;3137;51.550;7.060;2023-03-26T12:38:31;99748.50;;;8.49;86.54
6208;BME280;3137;51.550;7.060;2023-03-26T12:41:10;99757.78;;;8.32;84.75
6208;BME280;3137;51.550;7.060;2023-03-26T12:44:16;99750.75;;;8.20;85.16
6208;BME280;3137;51.550;7.060;2023-03-26T12:47:15;99747.59;;;8.15;84.94
6208;BME280;3137;51.550;7.060;2023-03-26T12:50:04;99750.13;;;8.05;84.65
6208;BME280;3137;51.550;7.060;2023-03-26T13:01:10;99746.09;;;7.99;85.46
6208;BME280;3137;51.550;7.060;2023-03-26T13:06:43;99750.78;;;7.84;83.46
6208;BME280;3137;51.550;7.060;2023-03-26T13:12:32;99751.63;;;7.85;84.01
6208;BME280;3137;51.550;7.060;2023-03-26T13:15:06;99750.41;;;7.78;84.14
6208;BME280;3137;51.550;7.060;2023-03-26T13:20:20;99749.47;;;7.79;84.94
6208;BME280;3137;51.550;7.060;2023-03-26T13:22:56;99748.38;;;7.81;85.31
6208;BME280;3137;51.550;7.060;2023-03-26T13:31:51;99747.91;;;7.99;85.70
6208;BME280;3137;51.550;7.060;2023-03-26T13:34:16;99746.63;;;8.16;85.76
6208;BME280;3137;51.550;7.060;2023-03-26T13:39:31;99744.84;;;8.39;86.58
6208;BME280;3137;51.550;7.060;2023-03-26T13:42:12;99747.53;;;8.50;86.50
6208;BME280;3137;51.550;7.060;2023-03-26T13:47:20;99744.75;;;8.74;86.00
6208;BME280;3137;51.550;7.060;2023-03-26T13:49:52;99747.00;;;8.79;85.61
6208;BME280;3137;51.550;7.060;2023-03-26T13:52:25;99750.41;;;8.92;85.72
6208;BME280;3137;51.550;7.060;2023-03-26T13:57:42;99749.75;;;9.11;85.84
6208;BME280;3137;51.550;7.060;2023-03-26T14:00:34;99746.47;;;9.19;85.67
6208;BME280;3137;51.550;7.060;2023-03-26T14:03:14;99752.41;;;9.22;85.54
6208;BME280;3137;51.550;7.060;2023-03-26T14:05:46;99749.38;;;9.15;85.03
6208;BME280;3137;51.550;7.060;2023-03-26T14:11:06;99751.34;;;9.02;84.25
6208;BME280;3137;51.550;7.060;2023-03-26T14:13:49;99762.41;;;8.98;84.87
6208;BME280;3137;51.550;7.060;2023-03-26T14:16:28;99754.38;;;8.98;85.08
6208;BME280;3137;51.550;7.060;2023-03-26T14:19:21;99758.88;;;8.97;85.06
6208;BME280;3137;51.550;7.060;2023-03-26T14:25:03;99759.03;;;8.96;84.83
6208;BME280;3137;51.550;7.060;2023-03-26T14:28:04;99765.84;;;8.88;84.69
6208;BME280;3137;51.550;7.060;2023-03-26T14:39:43;99791.34;;;8.81;85.25
6208;BME280;3137;51.550;7.060;2023-03-26T14:42:23;99783.44;;;8.80;85.64
6208;BME280;3137;51.550;7.060;2023-03-26T14:45:02;99783.53;;;8.78;85.81
6208;BME280;3137;51.550;7.060;2023-03-26T14:47:35;99788.03;;;8.66;86.01
6208;BME280;3137;51.550;7.060;2023-03-26T14:52:47;99788.53;;;8.60;86.45
6208;BME280;3137;51.550;7.060;2023-03-26T15:01:10;99804.41;;;8.50;86.43
6208;BME280;3137;51.550;7.060;2023-03-26T15:09:55;99809.69;;;8.39;86.86
6208;BME280;3137;51.550;7.060;2023-03-26T15:12:47;99815.91;;;8.40;87.43
6208;BME280;3137;51.550;7.060;2023-03-26T15:18:26;99820.00;;;8.32;87.18
6208;BME280;3137;51.550;7.060;2023-03-26T15:23:56;99823.66;;;8.31;87.07
6208;BME280;3137;51.550;7.060;2023-03-26T15:30:25;99837.53;;;8.13;85.96
6208;BME280;3137;51.550;7.060;2023-03-26T15:33:18;99843.47;;;8.05;85.75
6208;BME280;3137;51.550;7.060;2023-03-26T15:38:50;99848.91;;;8.03;85.78
6208;BME280;3137;51.550;7.060;2023-03-26T15:46:56;99860.81;;;7.86;87.24
6208;BME280;3137;51.550;7.060;2023-03-26T15:49:33;99863.72;;;7.83;87.28
6208;BME280;3137;51.550;7.060;2023-03-26T15:52:25;99866.41;;;7.83;87.62
6208;BME280;3137;51.550;7.060;2023-03-26T15:55:08;99874.72;;;7.79;87.75
6208;BME280;3137;51.550;7.060;2023-03-26T15:57:53;99872.91;;;7.79;87.95
6208;BME280;3137;51.550;7.060;2023-03-26T16:00:24;99885.63;;;7.76;88.05
6208;BME280;3137;51.550;7.060;2023-03-26T16:03:11;99893.81;;;7.73;88.26
6208;BME280;3137;51.550;7.060;2023-03-26T16:08:34;99905.91;;;7.65;88.46
6208;BME280;3137;51.550;7.060;2023-03-26T16:11:05;99908.91;;;7.61;88.03
6208;BME280;3137;51.550;7.060;2023-03-26T16:13:42;99910.31;;;7.54;87.70
6208;BME280;3137;51.550;7.060;2023-03-26T16:16:22;99910.31;;;7.54;87.93
6208;BME280;3137;51.550;7.060;2023-03-26T16:18:58;99920.00;;;7.55;87.46
6208;BME280;3137;51.550;7.060;2023-03-26T16:21:59;99918.44;;;7.52;86.55
6208;BME280;3137;51.550;7.060;2023-03-26T16:24:29;99922.03;;;7.51;86.88
6208;BME280;3137;51.550;7.060;2023-03-26T16:27:04;99927.69;;;7.46;86.43
6208;BME280;3137;51.550;7.060;2023-03-26T16:32:27;99937.22;;;7.38;86.39
6208;BME280;3137;51.550;7.060;2023-03-26T16:34:59;99939.88;;;7.38;86.78
6208;BME280;3137;51.550;7.060;2023-03-26T16:42:49;99960.00;;;7.29;86.75
6208;BME280;3137;51.550;7.060;2023-03-26T16:45:41;99970.75;;;7.28;86.88
6208;BME280;3137;51.550;7.060;2023-03-26T16:48:28;99972.34;;;7.30;86.07
6208;BME280;3137;51.550;7.060;2023-03-26T16:51:20;99984.53;;;7.21;86.85
6208;BME280;3137;51.550;7.060;2023-03-26T16:54:15;99987.94;;;7.23;85.59
6208;BME280;3137;51.550;7.060;2023-03-26T16:59:52;99996.44;;;7.16;85.94
6208;BME280;3137;51.550;7.060;2023-03-26T17:08:06;100017.75;;;7.16;86.16
6208;BME280;3137;51.550;7.060;2023-03-26T17:13:27;100019.13;;;7.09;84.86
6208;BME280;3137;51.550;7.060;2023-03-26T17:16:27;100026.06;;;7.11;84.56
6208;BME280;3137;51.550;7.060;2023-03-26T17:24:44;100059.50;;;7.02;82.97
6208;BME280;3137;51.550;7.060;2023-03-26T17:27:45;100062.78;;;7.06;83.33
6208;BME280;3137;51.550;7.060;2023-03-26T17:30:40;100068.25;;;7.05;84.11
6208;BME280;3137;51.550;7.060;2023-03-26T17:33:26;100074.63;;;7.02;83.20
6208;BME280;3137;51.550;7.060;2023-03-26T17:36:14;100078.53;;;6.96;83.58
6208;BME280;3137;51.550;7.060;2023-03-26T17:41:53;100093.13;;;7.03;81.23
6208;BME280;3137;51.550;7.060;2023-03-26T17:44:35;100093.44;;;6.99;80.98
6208;BME280;3137;51.550;7.060;2023-03-26T17:47:05;100106.13;;;6.95;81.38
6208;BME280;3137;51.550;7.060;2023-03-26T17:49:37;100105.91;;;6.98;81.30
6208;BME280;3137;51.550;7.060;2023-03-26T17:52:25;100111.66;;;6.92;81.21
6208;BME280;3137;51.550;7.060;2023-03-26T17:54:55;100122.59;;;6.88;81.80
6208;BME280;3137;51.550;7.060;2023-03-26T17:57:40;100127.78;;;6.76;81.51
6208;BME280;3137;51.550;7.060;2023-03-26T18:00:17;100133.34;;;6.86;81.08
6208;BME280;3137;51.550;7.060;2023-03-26T18:02:54;100149.63;;;6.81;81.16
6208;BME280;3137;51.550;7.060;2023-03-26T18:05:26;100153.94;;;6.70;79.90
6208;BME280;3137;51.550;7.060;2023-03-26T18:10:53;100165.63;;;6.67;80.00
6208;BME280;3137;51.550;7.060;2023-03-26T18:16:11;100175.50;;;6.65;79.56